Air Resources Laboratory banner image
Air Resources Laboratory web site National Oceanic and Atmospheric Administration (NOAA)

nj metar


KMMU 142245Z 31006G14KT 10SM SCT250 M04/M13 A2998=